Time;durP1;ratioP1;P1;durP2;ratioP2;P2;SDS_P1;SDS_P2;PMS_P1;PMS_P2;Temp;Humidity;BMP_temperature;BMP_pressure;BME280_temperature;BME280_humidity;BME280_pressure;Samples;Min_cycle;Max_cycle;Signal;HPM_P1;HPM_P2
2022/01/01 00:01:27;;;;;;;2.78;0.93;;;;;;;3.70;60.73;101213.13;4936441;29;20052;-79
2022/01/01 00:03:56;;;;;;;3.38;1.15;;;;;;;3.62;60.68;101218.53;4948697;28;20516;-78
2022/01/01 00:06:24;;;;;;;1.50;1.05;;;;;;;3.48;60.16;101231.34;4946423;29;20051;-80
2022/01/01 00:08:53;;;;;;;1.75;1.00;;;;;;;3.34;60.47;101234.63;4941053;28;20090;-75
2022/01/01 00:11:21;;;;;;;1.67;1.08;;;;;;;3.21;61.18;101239.72;4947251;28;20060;-77
2022/01/01 00:13:50;;;;;;;3.38;0.95;;;;;;;3.09;61.70;101245.81;4948777;29;20056;-76
2022/01/01 00:16:20;;;;;;;2.50;0.80;;;;;;;2.99;62.48;101252.75;4935461;29;20052;-75
2022/01/01 00:18:48;;;;;;;2.28;0.95;;;;;;;2.90;61.79;101247.88;4935176;29;20051;-75
2022/01/01 00:21:17;;;;;;;3.08;1.05;;;;;;;2.73;60.52;101229.75;4940776;29;20047;-72
2022/01/01 00:23:45;;;;;;;2.95;0.95;;;;;;;2.73;62.14;101255.28;4953209;28;20079;-76
2022/01/01 00:26:14;;;;;;;1.40;0.90;;;;;;;2.67;62.71;101254.88;4938835;28;20047;-77
2022/01/01 00:28:43;;;;;;;1.10;0.73;;;;;;;2.65;63.12;101264.09;4953682;28;20497;-76
2022/01/01 00:31:11;;;;;;;1.20;0.70;;;;;;;2.57;65.08;101266.91;4953697;28;20512;-75
2022/01/01 00:33:42;;;;;;;1.35;0.80;;;;;;;2.47;64.11;101265.38;4952476;28;20282;-76
2022/01/01 00:36:10;;;;;;;2.25;0.90;;;;;;;2.38;64.41;101262.16;4946767;28;20048;-75
2022/01/01 00:38:39;;;;;;;0.80;0.80;;;;;;;2.32;66.39;101279.63;4934579;29;20107;-75
2022/01/01 00:41:07;;;;;;;1.13;1.00;;;;;;;2.21;66.10;101276.31;4952755;29;20047;-76
2022/01/01 00:43:35;;;;;;;0.50;0.50;;;;;;;2.13;67.17;101278.31;4953254;28;20051;-78
2022/01/01 00:46:04;;;;;;;3.55;0.82;;;;;;;2.00;65.16;101275.66;4936419;29;20050;-73
2022/01/01 00:48:33;;;;;;;3.20;1.50;;;;;;;1.88;66.55;101276.53;4936115;29;20075;-76
2022/01/01 00:51:03;;;;;;;2.30;0.57;;;;;;;1.83;68.19;101280.44;4936248;29;20098;-74
2022/01/01 00:53:32;;;;;;;5.32;2.25;;;;;;;1.65;65.21;101282.53;4941918;29;20109;-74
2022/01/01 00:56:00;;;;;;;2.38;0.95;;;;;;;1.50;67.65;101285.59;4939719;28;20083;-75
2022/01/01 00:58:28;;;;;;;1.52;0.85;;;;;;;1.51;67.80;101284.81;4953022;29;20050;-75
2022/01/01 01:00:57;;;;;;;3.10;0.73;;;;;;;1.48;68.21;101288.03;4941072;28;20055;-76
2022/01/01 01:03:25;;;;;;;2.28;1.10;;;;;;;1.48;68.71;101293.13;4951722;29;20051;-76
2022/01/01 01:05:54;;;;;;;2.50;0.90;;;;;;;1.51;68.54;101303.53;4953885;28;20086;-78
2022/01/01 01:08:24;;;;;;;1.67;0.73;;;;;;;1.50;69.02;101300.91;4941024;28;20083;-76
2022/01/01 01:10:52;;;;;;;2.08;1.23;;;;;;;1.50;69.19;101306.00;4957690;28;20510;-76
2022/01/01 01:13:21;;;;;;;3.42;0.93;;;;;;;1.48;70.36;101315.19;4956995;28;20131;-76
2022/01/01 01:15:50;;;;;;;2.70;1.15;;;;;;;1.48;69.54;101322.84;4943662;28;20130;-78
2022/01/01 01:18:18;;;;;;;1.33;0.70;;;;;;;1.45;69.59;101329.50;4957323;28;20055;-75
2022/01/01 01:20:47;;;;;;;2.45;1.25;;;;;;;1.40;68.18;101335.03;4956850;28;20118;-77
2022/01/01 01:23:15;;;;;;;1.55;0.73;;;;;;;1.38;68.68;101331.47;4956813;28;20055;-73
2022/01/01 01:25:45;;;;;;;1.40;0.90;;;;;;;1.31;66.55;101330.13;4943994;29;20083;-75
2022/01/01 01:28:14;;;;;;;2.35;1.08;;;;;;;1.22;66.90;101324.31;4951774;28;20044;-74
2022/01/01 01:30:45;;;;;;;2.08;0.85;;;;;;;1.15;66.76;101333.16;4942047;29;20053;-76
2022/01/01 01:33:13;;;;;;;1.15;0.60;;;;;;;1.09;68.08;101336.91;4958009;28;20428;-79
2022/01/01 01:35:42;;;;;;;1.45;0.77;;;;;;;1.04;68.13;101352.72;4941148;29;20110;-76
2022/01/01 01:38:10;;;;;;;1.15;0.70;;;;;;;0.84;68.66;101355.38;4955815;28;20117;-77
2022/01/01 01:40:39;;;;;;;2.13;1.02;;;;;;;0.83;68.80;101356.16;4961338;28;20078;-74
2022/01/01 01:43:11;;;;;;;2.42;0.90;;;;;;;0.81;68.19;101361.13;4958472;28;20062;-74
2022/01/01 01:45:42;;;;;;;1.95;1.20;;;;;;;0.80;68.75;101361.91;4970734;28;20043;-72
2022/01/01 01:48:10;;;;;;;1.77;1.10;;;;;;;0.77;67.48;101368.41;4936557;29;20051;-73
2022/01/01 01:50:39;;;;;;;14.60;4.30;;;;;;;0.78;67.96;101371.09;4939080;29;20080;-74
2022/01/01 01:53:08;;;;;;;3.92;1.25;;;;;;;0.77;67.69;101373.50;4956706;29;20102;-79
2022/01/01 01:55:37;;;;;;;1.02;0.65;;;;;;;0.71;66.75;101373.94;4966573;28;20089;-77
2022/01/01 01:58:06;;;;;;;2.92;0.98;;;;;;;0.75;65.00;101380.13;4960163;28;20413;-77
2022/01/01 02:00:59;;;;;;;2.67;1.10;;;;;;;0.75;67.22;101385.22;4946517;28;20048;-74
2022/01/01 02:03:28;;;;;;;2.90;1.08;;;;;;;0.73;66.95;101392.75;4950337;29;20059;-74
2022/01/01 02:05:57;;;;;;;3.58;1.50;;;;;;;0.71;68.48;101389.22;4947152;29;20101;-77
2022/01/01 02:08:28;;;;;;;1.95;1.02;;;;;;;0.68;68.11;101393.16;4942586;28;20058;-76
2022/01/01 02:10:57;;;;;;;3.03;0.80;;;;;;;0.65;67.22;101409.09;4943297;28;20130;-77
2022/01/01 02:13:30;;;;;;;1.90;0.80;;;;;;;0.66;67.40;101409.97;4948594;29;20069;-75
2022/01/01 02:16:26;;;;;;;2.25;0.60;;;;;;;0.66;69.03;101415.94;4956190;28;20069;-72
2022/01/01 02:18:56;;;;;;;0.68;0.65;;;;;;;0.67;68.35;101416.88;4956012;29;20055;-76
2022/01/01 02:21:26;;;;;;;1.50;1.00;;;;;;;0.66;66.58;101421.03;4955151;28;20051;-78
2022/01/01 02:23:59;;;;;;;2.13;1.25;;;;;;;0.62;66.54;101424.16;4949615;29;20094;-77
2022/01/01 02:26:33;;;;;;;1.80;0.93;;;;;;;0.55;67.18;101432.94;4943151;29;20087;-79
2022/01/01 02:29:03;;;;;;;2.28;0.73;;;;;;;0.49;66.29;101437.53;4956581;28;20110;-79
2022/01/01 02:31:34;;;;;;;2.08;0.98;;;;;;;0.48;66.57;101440.88;4948213;28;20051;-75
2022/01/01 02:34:06;;;;;;;1.98;1.17;;;;;;;0.51;67.14;101446.19;4955596;28;20106;-78
2022/01/01 02:36:38;;;;;;;2.67;1.08;;;;;;;0.50;67.51;101439.31;4938428;29;20177;-78
2022/01/01 02:39:14;;;;;;;2.33;1.20;;;;;;;0.51;66.53;101447.84;4951800;29;20130;-80
2022/01/01 02:41:43;;;;;;;2.00;0.77;;;;;;;0.48;65.38;101451.03;4956799;28;20054;-75
2022/01/01 02:44:12;;;;;;;1.27;0.70;;;;;;;0.45;64.10;101445.69;4954071;29;20082;-76
2022/01/01 02:46:41;;;;;;;1.10;0.85;;;;;;;0.44;64.76;101454.09;4938200;29;20052;-74
2022/01/01 02:49:10;;;;;;;1.38;0.93;;;;;;;0.41;63.82;101446.19;4938689;29;20052;-77
2022/01/01 02:51:40;;;;;;;1.60;0.85;;;;;;;0.39;64.59;101445.19;4937893;29;20114;-73
2022/01/01 02:54:08;;;;;;;1.83;0.90;;;;;;;0.37;65.61;101459.47;4951728;29;20079;-77
2022/01/01 02:56:37;;;;;;;2.00;0.82;;;;;;;0.33;63.21;101465.06;4941611;28;20075;-76
2022/01/01 02:59:06;;;;;;;1.83;1.23;;;;;;;0.30;63.15;101469.88;4955013;28;20055;-77
2022/01/01 03:01:34;;;;;;;1.48;1.05;;;;;;;0.22;63.01;101466.72;4954652;28;20055;-75
2022/01/01 03:04:03;;;;;;;2.08;0.95;;;;;;;0.23;62.75;101485.41;4946454;28;20051;-76
2022/01/01 03:06:31;;;;;;;1.85;1.40;;;;;;;0.19;64.45;101489.38;4947086;29;20082;-76
2022/01/01 03:09:01;;;;;;;2.65;0.98;;;;;;;0.18;63.81;101495.22;4936737;28;20044;-74
2022/01/01 03:11:30;;;;;;;1.38;0.85;;;;;;;0.16;64.18;101492.56;4943631;28;20485;-75
2022/01/01 03:13:58;;;;;;;2.20;0.95;;;;;;;0.12;64.88;101485.44;4951128;29;20356;-75
2022/01/01 03:16:27;;;;;;;5.03;1.63;;;;;;;0.13;64.26;101489.75;4945390;28;20135;-75
2022/01/01 03:18:55;;;;;;;1.90;1.05;;;;;;;0.09;64.51;101490.28;4935113;29;20123;-75
2022/01/01 03:21:24;;;;;;;2.03;1.05;;;;;;;0.10;65.33;101492.06;4935254;29;20455;-74
2022/01/01 03:23:52;;;;;;;1.88;0.75;;;;;;;0.11;64.46;101493.81;4947895;29;20062;-75
2022/01/01 03:26:22;;;;;;;2.42;1.63;;;;;;;0.08;64.91;101488.50;4954461;28;20450;-74
2022/01/01 03:28:51;;;;;;;1.98;1.10;;;;;;;0.05;65.05;101492.44;4942408;29;20069;-72
2022/01/01 03:31:19;;;;;;;4.28;1.30;;;;;;;0.05;63.85;101493.34;4943884;29;20505;-73
2022/01/01 03:33:48;;;;;;;1.17;0.52;;;;;;;-0.08;63.31;101476.16;4951254;28;20110;-74
2022/01/01 03:36:17;;;;;;;2.28;1.20;;;;;;;0.01;63.39;101500.59;4942491;29;20047;-74
2022/01/01 03:38:45;;;;;;;2.88;1.10;;;;;;;-0.04;64.22;101502.75;4940464;28;20135;-76
2022/01/01 03:41:13;;;;;;;2.53;0.60;;;;;;;-0.06;62.99;101509.34;4954442;28;20051;-74
2022/01/01 03:43:43;;;;;;;2.28;1.00;;;;;;;-0.10;63.02;101515.81;4953832;28;20270;-73
2022/01/01 03:46:12;;;;;;;3.60;1.52;;;;;;;-0.13;63.22;101518.13;4948727;28;20557;-73
2022/01/01 03:48:41;;;;;;;2.72;1.33;;;;;;;-0.15;63.60;101513.66;4945460;29;20086;-76
2022/01/01 03:51:10;;;;;;;2.53;1.20;;;;;;;-0.18;64.09;101518.47;4940384;28;20493;-74
2022/01/01 03:53:38;;;;;;;4.13;1.38;;;;;;;-0.27;63.90;101514.41;4953134;28;20058;-74
2022/01/01 03:56:08;;;;;;;1.98;1.08;;;;;;;-0.26;63.35;101526.34;4940958;28;20122;-73
2022/01/01 03:58:36;;;;;;;2.90;1.30;;;;;;;-0.33;64.08;101515.53;4936245;29;20474;-73
2022/01/01 04:01:06;;;;;;;2.22;1.40;;;;;;;-0.43;64.51;101508.78;4947941;29;20489;-73
2022/01/01 04:03:35;;;;;;;1.83;0.80;;;;;;;-0.34;63.89;101529.91;4946964;28;20142;-72
2022/01/01 04:06:03;;;;;;;2.72;1.30;;;;;;;-0.36;64.83;101528.00;4942527;29;20054;-74
2022/01/01 04:08:32;;;;;;;2.63;1.83;;;;;;;-0.38;65.24;101534.59;4939561;28;20127;-75
2022/01/01 04:11:00;;;;;;;1.65;1.13;;;;;;;-0.41;65.94;101540.31;4940850;28;20051;-73
2022/01/01 04:13:29;;;;;;;3.72;1.13;;;;;;;-0.45;66.63;101549.31;4948160;28;20104;-73
2022/01/01 04:15:58;;;;;;;6.13;2.95;;;;;;;-0.46;66.90;101551.72;4935701;28;20087;-74
2022/01/01 04:18:37;;;;;;;6.28;2.92;;;;;;;-0.50;66.93;101554.78;4936669;29;20048;-74
2022/01/01 04:21:07;;;;;;;8.50;4.18;;;;;;;-0.54;67.29;101557.81;4947953;29;20092;-75
2022/01/01 04:23:36;;;;;;;1.85;0.95;;;;;;;-0.53;67.64;101557.03;4950550;29;20047;-75
2022/01/01 04:26:05;;;;;;;6.70;2.35;;;;;;;-0.59;67.79;101562.50;4953096;28;20106;-75
2022/01/01 04:28:34;;;;;;;4.43;1.77;;;;;;;-0.61;68.43;101570.75;4955064;28;20062;-75
2022/01/01 04:31:03;;;;;;;1.85;1.13;;;;;;;-0.63;68.80;101568.06;4946899;28;20055;-73
2022/01/01 04:33:33;;;;;;;2.88;1.50;;;;;;;-0.63;68.12;101568.06;4954357;28;20051;-73
2022/01/01 04:36:02;;;;;;;4.60;1.40;;;;;;;-0.66;69.12;101565.28;4935640;29;20493;-75
2022/01/01 04:38:37;;;;;;;1.50;0.90;;;;;;;-0.66;68.74;101567.81;4945279;29;20061;-73
2022/01/01 04:41:07;;;;;;;6.93;1.63;;;;;;;-0.78;69.70;101547.31;4939666;28;20057;-72
2022/01/01 04:43:36;;;;;;;2.30;1.17;;;;;;;-0.74;70.24;101564.56;4952424;28;20469;-73
2022/01/01 04:46:04;;;;;;;2.47;1.30;;;;;;;-0.84;69.50;101546.75;4950848;28;20047;-72
2022/01/01 04:48:37;;;;;;;3.42;1.35;;;;;;;-0.82;68.59;101573.19;4942241;29;20050;-73
2022/01/01 04:51:06;;;;;;;;;;;;;;;-0.85;68.67;101565.28;4953894;28;20078;-73
2022/01/01 04:53:35;;;;;;;2.53;1.13;;;;;;;-0.88;67.71;101565.03;4933741;29;19927;-74
2022/01/01 04:56:06;;;;;;;3.05;1.40;;;;;;;-0.94;68.25;101567.00;4945879;29;20051;-74
2022/01/01 04:58:35;;;;;;;1.98;1.20;;;;;;;-0.93;69.93;101569.69;4938841;28;20528;-74
2022/01/01 05:01:04;;;;;;;1.63;0.98;;;;;;;-0.92;69.12;101578.22;4947131;29;20118;-74
2022/01/01 05:03:34;;;;;;;0.88;0.73;;;;;;;-0.95;69.48;101585.56;4936989;28;21208;-74
2022/01/01 05:06:02;;;;;;;2.97;1.45;;;;;;;-0.94;68.58;101590.78;4942321;29;20082;-72
2022/01/01 05:08:31;;;;;;;1.05;0.75;;;;;;;-0.94;69.50;101595.88;4939559;28;20075;-73
2022/01/01 05:11:00;;;;;;;2.08;1.02;;;;;;;-0.95;69.52;101603.34;4952372;28;20111;-72
2022/01/01 05:13:28;;;;;;;2.38;1.40;;;;;;;-0.97;70.92;101605.75;4956047;28;20062;-73
2022/01/01 05:16:04;;;;;;;3.75;1.35;;;;;;;-0.95;70.39;101616.94;4942058;28;20454;-71
2022/01/01 05:18:36;;;;;;;2.88;1.20;;;;;;;-0.96;69.10;101622.78;4943007;28;20462;-72
2022/01/01 05:21:05;;;;;;;4.78;1.70;;;;;;;-0.94;68.47;101620.38;4934187;29;20087;-72
2022/01/01 05:23:33;;;;;;;2.35;1.10;;;;;;;-0.95;68.31;101618.59;4949826;28;20427;-72
2022/01/01 05:26:02;;;;;;;9.10;1.65;;;;;;;-0.95;68.86;101624.56;4938867;28;20152;-72
2022/01/01 05:28:31;;;;;;;2.28;0.93;;;;;;;-0.94;68.05;101625.44;4940808;29;20059;-72
2022/01/01 05:30:59;;;;;;;1.17;0.88;;;;;;;-0.92;69.14;101629.03;4946501;28;20505;-73
2022/01/01 05:33:28;;;;;;;1.27;0.80;;;;;;;-0.91;65.39;101639.31;4952417;28;20073;-77
2022/01/01 05:35:58;;;;;;;1.73;1.00;;;;;;;-0.93;66.41;101645.03;4952933;28;20454;-74
2022/01/01 05:38:26;;;;;;;1.63;0.85;;;;;;;-1.04;65.66;101648.25;4942948;28;20052;-73
2022/01/01 05:40:56;;;;;;;2.15;1.05;;;;;;;-1.08;65.53;101657.22;4964602;28;20109;-72
2022/01/01 05:43:24;;;;;;;1.80;0.93;;;;;;;-1.13;64.37;101640.69;4963518;28;20047;-72
2022/01/01 05:45:53;;;;;;;1.83;1.05;;;;;;;-1.22;65.75;101630.59;4939205;28;20079;-70
2022/01/01 05:48:21;;;;;;;1.95;1.20;;;;;;;-1.36;67.05;101636.06;4946205;28;20514;-73
2022/01/01 05:50:50;;;;;;;4.10;0.98;;;;;;;-1.51;69.04;101620.34;4933901;29;20056;-72
2022/01/01 05:53:20;;;;;;;1.77;1.23;;;;;;;-1.62;69.13;101614.28;4938559;29;20059;-74
2022/01/01 05:55:49;;;;;;;1.60;0.95;;;;;;;-1.73;69.09;101625.09;4942192;28;20197;-73
2022/01/01 05:58:18;;;;;;;3.38;1.17;;;;;;;-1.70;69.48;101638.03;4953086;29;20059;-78
2022/01/01 06:00:47;;;;;;;2.13;1.15;;;;;;;-1.65;70.27;101639.34;4948267;28;20107;-73
2022/01/01 06:03:17;;;;;;;1.88;1.30;;;;;;;-1.63;70.31;101637.84;4938997;29;20063;-76
2022/01/01 06:05:48;;;;;;;1.83;1.27;;;;;;;-1.62;68.62;101642.19;4945285;29;20127;-77
2022/01/01 06:08:16;;;;;;;4.28;2.08;;;;;;;-1.64;69.34;101650.41;4945110;28;20051;-75
2022/01/01 06:10:46;;;;;;;3.17;1.30;;;;;;;-1.63;70.07;101659.81;4953579;28;20067;-72
2022/01/01 06:13:15;;;;;;;2.47;1.38;;;;;;;-1.65;69.79;101667.25;4948786;28;20473;-77
2022/01/01 06:15:44;;;;;;;2.50;1.80;;;;;;;-1.70;71.63;101663.41;4955822;28;20047;-76
2022/01/01 06:18:12;;;;;;;1.70;0.85;;;;;;;-1.74;70.17;101664.78;4956158;28;20055;-72
2022/01/01 06:20:42;;;;;;;4.78;1.30;;;;;;;-1.74;69.83;101663.88;4942194;28;20557;-77
2022/01/01 06:23:10;;;;;;;1.67;0.70;;;;;;;-1.76;70.80;101667.94;4955955;28;20051;-78
2022/01/01 06:25:39;;;;;;;3.05;1.60;;;;;;;-1.77;70.91;101673.75;4943628;28;20667;-77
2022/01/01 06:28:09;;;;;;;3.70;1.90;;;;;;;-1.76;71.64;101680.63;4954954;29;20050;-77
2022/01/01 06:30:37;;;;;;;0.65;0.40;;;;;;;-1.76;72.17;101686.59;4955764;28;20488;-75
2022/01/01 06:33:12;;;;;;;2.10;1.42;;;;;;;-1.80;71.86;101684.50;4955628;28;20051;-73
2022/01/01 06:35:41;;;;;;;1.67;1.30;;;;;;;-1.81;72.29;101686.88;4942215;28;20051;-76
2022/01/01 06:38:10;;;;;;;2.08;1.17;;;;;;;-1.89;72.20;101668.44;4946483;28;20048;-76
2022/01/01 06:40:39;;;;;;;3.05;0.88;;;;;;;-1.78;72.13;101682.13;4936613;29;20063;-75
2022/01/01 06:43:10;;;;;;;2.38;1.08;;;;;;;-1.84;70.95;101686.63;4943534;29;20047;-74
2022/01/01 06:45:39;;;;;;;2.45;0.80;;;;;;;-1.91;71.91;101686.03;4942526;28;20051;-78
2022/01/01 06:48:09;;;;;;;1.35;0.70;;;;;;;-1.90;70.87;101692.91;4955621;28;20051;-74
2022/01/01 06:50:38;;;;;;;3.15;1.50;;;;;;;-1.83;71.55;101691.84;4944355;28;20135;-74
2022/01/01 06:53:07;;;;;;;1.95;1.33;;;;;;;-1.80;73.25;101703.91;4952974;29;20047;-74
2022/01/01 06:55:35;;;;;;;1.98;1.13;;;;;;;-1.78;70.83;101704.97;4956397;28;20048;-73
2022/01/01 06:58:03;;;;;;;3.17;1.27;;;;;;;-1.79;70.91;101693.00;4954643;28;20047;-76
2022/01/01 07:00:34;;;;;;;1.48;1.15;;;;;;;-1.76;72.16;101708.53;4943452;28;20091;-74
2022/01/01 07:03:09;;;;;;;2.67;1.63;;;;;;;-1.73;71.87;101708.81;4955182;28;20048;-75
2022/01/01 07:05:38;;;;;;;2.50;1.17;;;;;;;-1.70;70.91;101704.00;4944519;28;20070;-75
2022/01/01 07:08:07;;;;;;;1.63;1.10;;;;;;;-1.64;70.29;101712.22;4946115;28;20048;-73
2022/01/01 07:10:35;;;;;;;4.28;1.33;;;;;;;-1.62;69.83;101710.72;4952080;29;20094;-75
2022/01/01 07:13:04;;;;;;;2.25;1.55;;;;;;;-1.60;69.80;101693.97;4956509;28;20109;-75
2022/01/01 07:15:34;;;;;;;2.47;0.90;;;;;;;-1.55;69.61;101705.44;4941485;28;20138;-74
2022/01/01 07:18:02;;;;;;;2.72;1.13;;;;;;;-1.54;69.18;101702.16;4954831;28;20052;-75
2022/01/01 07:20:31;;;;;;;3.38;1.02;;;;;;;-1.53;68.42;101703.94;4941267;28;20055;-74
2022/01/01 07:22:59;;;;;;;5.25;1.67;;;;;;;-1.53;68.92;101703.06;4954559;28;20051;-74
2022/01/01 07:25:29;;;;;;;3.85;1.15;;;;;;;-1.55;69.73;101708.00;4942905;28;20064;-75
2022/01/01 07:27:58;;;;;;;3.10;1.75;;;;;;;-1.55;69.54;101712.19;4939982;29;20083;-75
2022/01/01 07:30:26;;;;;;;5.03;1.92;;;;;;;-1.54;69.39;101717.38;4945836;28;20051;-75
2022/01/01 07:32:56;;;;;;;3.83;1.77;;;;;;;-1.55;69.28;101712.19;4954760;28;20093;-75
2022/01/01 07:35:25;;;;;;;2.67;1.48;;;;;;;-1.55;69.45;101708.00;4969228;28;20047;-75
2022/01/01 07:37:54;;;;;;;2.42;1.17;;;;;;;-1.60;68.31;101718.47;4949277;28;20083;-75
2022/01/01 07:40:23;;;;;;;3.97;1.88;;;;;;;-1.61;69.13;101722.63;4946563;29;20139;-74
2022/01/01 07:42:52;;;;;;;2.58;1.40;;;;;;;-1.60;69.72;101719.38;4953944;28;20086;-75
2022/01/01 07:45:20;;;;;;;3.28;1.15;;;;;;;-1.61;68.41;101709.06;4945394;28;20095;-80
2022/01/01 07:47:49;;;;;;;2.30;0.93;;;;;;;-1.65;67.43;101715.47;4940092;28;20090;-76
2022/01/01 07:50:19;;;;;;;3.42;1.50;;;;;;;-1.73;68.12;101713.88;4973877;28;20058;-76
2022/01/01 07:52:48;;;;;;;1.88;1.10;;;;;;;-1.76;69.41;101716.16;4958653;28;20107;-75
2022/01/01 07:55:16;;;;;;;3.42;1.58;;;;;;;-1.81;69.94;101702.09;4949002;28;20051;-73
2022/01/01 07:57:45;;;;;;;4.00;2.03;;;;;;;-1.72;70.05;101723.28;4947659;29;20102;-74
2022/01/01 08:00:14;;;;;;;1.48;1.23;;;;;;;-1.72;70.10;101724.19;4955379;28;20059;-75
2022/01/01 08:02:44;;;;;;;1.80;1.10;;;;;;;-1.70;68.12;101729.38;4953827;28;20055;-75
2022/01/01 08:05:13;;;;;;;3.28;1.73;;;;;;;-1.79;68.18;101731.06;4969363;28;20047;-78
2022/01/01 08:07:43;;;;;;;2.05;1.40;;;;;;;-1.85;69.69;101730.50;4948413;28;20102;-79
2022/01/01 08:10:13;;;;;;;3.95;1.30;;;;;;;-1.95;69.07;101734.72;4953456;28;20444;-76
2022/01/01 08:12:42;;;;;;;4.20;1.98;;;;;;;-2.12;70.06;101720.41;4943141;28;20078;-77
2022/01/01 08:15:11;;;;;;;4.70;2.33;;;;;;;-2.07;70.42;101741.13;4943492;29;20490;-75
2022/01/01 08:17:40;;;;;;;5.88;3.08;;;;;;;-2.05;71.41;101747.25;4947549;29;20058;-75
2022/01/01 08:20:09;;;;;;;3.67;1.95;;;;;;;-2.02;71.92;101751.72;4934279;29;20130;-75
2022/01/01 08:22:37;;;;;;;7.93;2.50;;;;;;;-2.00;72.36;101756.19;4949202;29;20055;-75
2022/01/01 08:25:08;;;;;;;5.15;2.88;;;;;;;-2.01;70.21;101759.47;4940435;29;20508;-76
2022/01/01 08:27:37;;;;;;;4.00;1.70;;;;;;;-2.04;70.24;101766.75;4941705;28;20048;-77
2022/01/01 08:30:06;;;;;;;3.17;1.55;;;;;;;-2.05;70.60;101772.59;4939185;29;20114;-76
2022/01/01 08:32:34;;;;;;;2.60;1.48;;;;;;;-2.06;71.15;101775.91;4953396;28;20083;-78
2022/01/01 08:35:03;;;;;;;1.98;0.85;;;;;;;-2.14;71.23;101770.06;4944061;28;20138;-75
2022/01/01 08:37:31;;;;;;;3.08;0.98;;;;;;;-2.18;70.13;101767.97;4948766;29;20532;-78
2022/01/01 08:40:00;;;;;;;0.75;0.65;;;;;;;-2.22;70.71;101770.06;4935070;29;20055;-79
2022/01/01 08:42:30;;;;;;;1.95;1.35;;;;;;;-2.26;70.25;101773.09;4949672;29;20058;-79
2022/01/01 08:44:58;;;;;;;2.25;1.13;;;;;;;-2.30;72.95;101779.47;4954079;28;20054;-77
2022/01/01 08:47:27;;;;;;;5.53;1.58;;;;;;;-2.34;71.37;101783.38;4954236;28;20481;-75
2022/01/01 08:49:56;;;;;;;2.63;1.40;;;;;;;-2.34;72.31;101785.00;4939974;28;20122;-75
2022/01/01 08:52:24;;;;;;;8.02;1.23;;;;;;;-2.30;73.23;101774.41;4943209;28;20062;-75
2022/01/01 08:54:56;;;;;;;3.63;1.45;;;;;;;-2.24;72.10;101790.22;4934386;29;20060;-74
2022/01/01 08:57:25;;;;;;;4.10;1.33;;;;;;;-2.19;72.21;101788.13;4942410;29;20051;-75
2022/01/01 08:59:55;;;;;;;1.05;0.95;;;;;;;-2.16;72.88;101789.31;4952135;28;20564;-74
2022/01/01 09:02:24;;;;;;;1.90;1.60;;;;;;;-2.12;72.58;101791.41;4940822;29;20291;-76
2022/01/01 09:04:52;;;;;;;5.78;1.83;;;;;;;-2.10;71.16;101786.50;4939850;28;20056;-75
2022/01/01 09:07:27;;;;;;;2.78;1.42;;;;;;;-2.09;71.17;101795.88;4947737;28;20103;-77
2022/01/01 09:09:56;;;;;;;3.22;1.58;;;;;;;-2.12;69.90;101806.63;4936067;28;20075;-76
2022/01/01 09:12:26;;;;;;;3.00;1.52;;;;;;;-2.17;70.24;101814.53;4956616;28;20059;-77
2022/01/01 09:14:57;;;;;;;2.65;1.80;;;;;;;-2.22;69.80;101829.31;4956069;28;20114;-76
2022/01/01 09:17:26;;;;;;;2.38;1.00;;;;;;;-2.21;71.08;101830.19;4939349;28;20066;-77
2022/01/01 09:19:54;;;;;;;3.45;1.23;;;;;;;-2.21;70.46;101830.19;4953079;28;20047;-76
2022/01/01 09:22:23;;;;;;;1.85;1.30;;;;;;;-2.29;70.28;101826.91;4944662;28;20051;-78
2022/01/01 09:24:51;;;;;;;2.92;1.30;;;;;;;-2.37;70.92;101823.59;4953353;28;20115;-76
2022/01/01 09:27:20;;;;;;;2.17;1.38;;;;;;;-2.50;72.07;101820.59;4953172;28;20568;-76
2022/01/01 09:29:48;;;;;;;1.33;1.10;;;;;;;-2.42;72.04;101837.47;4948642;28;20044;-76
2022/01/01 09:32:20;;;;;;;1.52;1.08;;;;;;;-2.42;72.64;101841.66;4950952;28;20109;-78
2022/01/01 09:34:48;;;;;;;1.92;1.20;;;;;;;-2.41;71.37;101843.44;4940055;28;20067;-79
2022/01/01 09:37:17;;;;;;;3.55;1.42;;;;;;;-2.44;71.52;101848.22;4947251;29;20219;-79
2022/01/01 09:39:45;;;;;;;1.40;0.70;;;;;;;-2.45;72.37;101854.00;4943047;28;20166;-78
2022/01/01 09:42:14;;;;;;;2.50;1.25;;;;;;;-2.48;72.71;101852.06;4949175;28;20207;-76
2022/01/01 09:44:42;;;;;;;2.38;1.17;;;;;;;-2.49;72.09;101846.88;4963991;28;20584;-77
2022/01/01 09:47:12;;;;;;;4.10;1.50;;;;;;;-2.54;71.96;101852.38;4951427;28;20118;-77
2022/01/01 09:49:43;;;;;;;1.98;1.25;;;;;;;-2.56;71.67;101858.03;4937988;29;20056;-78
2022/01/01 09:52:14;;;;;;;3.88;1.95;;;;;;;-2.62;72.04;101859.94;4941258;29;20113;-76
2022/01/01 09:54:43;;;;;;;2.38;1.33;;;;;;;-2.64;71.54;101861.44;4956676;28;20106;-78
2022/01/01 09:57:12;;;;;;;4.10;1.92;;;;;;;-2.72;73.13;101849.66;4956588;28;20053;-76
2022/01/01 09:59:41;;;;;;;3.63;1.42;;;;;;;-2.71;72.55;101859.03;4939133;29;20094;-76
2022/01/01 10:02:10;;;;;;;1.10;1.00;;;;;;;-2.74;71.69;101850.38;4951328;29;20079;-77
2022/01/01 10:04:50;;;;;;;1.67;0.90;;;;;;;-2.78;73.42;101863.47;4944746;29;20493;-78
2022/01/01 10:07:19;;;;;;;4.82;2.05;;;;;;;-2.79;70.63;101864.22;4953106;28;20039;-77
2022/01/01 10:09:47;;;;;;;1.42;0.95;;;;;;;-2.77;70.02;101866.94;4949061;29;20051;-73
2022/01/01 10:12:18;;;;;;;2.40;1.35;;;;;;;-2.87;70.19;101859.13;4953121;28;20779;-77
2022/01/01 10:14:48;;;;;;;1.95;1.02;;;;;;;-2.90;69.92;101877.44;4948123;29;20122;-78
2022/01/01 10:17:18;;;;;;;5.80;1.67;;;;;;;-2.94;70.99;101877.88;4944585;28;20090;-76
2022/01/01 10:19:52;;;;;;;2.92;0.98;;;;;;;-2.96;70.57;101874.28;4939210;29;20126;-77
2022/01/01 10:22:21;;;;;;;2.75;1.35;;;;;;;-3.00;71.19;101879.78;4952155;29;20055;-77
2022/01/01 10:27:54;;;;;;;3.58;1.20;;;;;;;-3.01;71.83;101888.13;4937433;29;20107;-75
2022/01/01 10:30:25;;;;;;;2.45;1.40;;;;;;;-2.94;71.51;101890.53;4946642;29;20043;-76
2022/01/01 10:33:08;;;;;;;1.88;1.08;;;;;;;-2.93;72.04;101889.81;4955571;28;20135;-74
2022/01/01 10:35:39;;;;;;;;;;;;;;;-2.86;72.37;101894.75;4940958;28;20095;-78
2022/01/01 10:38:12;;;;;;;4.03;1.63;;;;;;;-2.82;71.72;101901.94;4948538;29;19923;-77
2022/01/01 10:40:41;;;;;;;4.00;1.45;;;;;;;-2.82;71.93;101906.06;4936906;29;20114;-79
2022/01/01 10:43:11;;;;;;;5.82;1.23;;;;;;;-2.84;72.22;101907.56;4941762;29;20051;-78
2022/01/01 10:45:42;;;;;;;3.33;1.63;;;;;;;-2.88;70.72;101898.75;4956343;28;20134;-78
2022/01/01 10:48:22;;;;;;;3.47;1.75;;;;;;;-2.88;70.93;101908.91;4955844;28;20481;-80
2022/01/01 10:50:53;;;;;;;2.72;1.65;;;;;;;-2.88;70.40;101910.53;4943492;28;20063;-78
2022/01/01 10:53:24;;;;;;;4.45;1.75;;;;;;;-3.00;72.82;101905.09;4941853;29;20063;-77
2022/01/01 10:55:54;;;;;;;2.28;1.08;;;;;;;-2.95;71.45;101903.94;4943580;28;20062;-80
2022/01/01 10:58:25;;;;;;;3.17;1.30;;;;;;;-2.98;69.67;101903.63;4951408;29;20110;-78
2022/01/01 11:00:53;;;;;;;2.25;1.38;;;;;;;-2.98;71.14;101911.22;4943176;29;20047;-75
2022/01/01 11:03:23;;;;;;;3.17;1.83;;;;;;;-2.92;71.21;101913.50;4955035;28;20122;-76
2022/01/01 11:06:05;;;;;;;2.38;1.13;;;;;;;-2.84;70.99;101907.56;4951785;28;20051;-76
2022/01/01 11:08:35;;;;;;;3.45;1.27;;;;;;;-2.80;70.40;101920.69;4950075;28;20485;-76
2022/01/01 11:11:04;;;;;;;2.92;1.50;;;;;;;-2.76;71.85;101911.78;4963262;28;20046;-76
2022/01/01 11:13:33;;;;;;;6.78;2.05;;;;;;;-2.67;72.15;101921.94;4966323;28;20055;-74
2022/01/01 11:16:03;;;;;;;3.78;1.63;;;;;;;-2.62;71.31;101910.63;4939541;28;20170;-75
2022/01/01 11:18:33;;;;;;;3.88;1.88;;;;;;;-2.60;70.51;101893.94;4946150;29;20051;-75
2022/01/01 11:21:04;;;;;;;7.18;2.38;;;;;;;-2.60;70.31;101896.47;4942433;28;20044;-74
2022/01/01 11:23:34;;;;;;;5.28;2.20;;;;;;;-2.58;70.93;101900.06;4955908;28;20441;-75
2022/01/01 11:26:03;;;;;;;3.30;1.50;;;;;;;-2.59;71.89;101890.66;4939739;28;20107;-76
2022/01/01 11:28:31;;;;;;;4.45;1.75;;;;;;;-2.55;71.27;101902.88;4943496;29;20043;-77
2022/01/01 11:31:06;;;;;;;4.18;1.75;;;;;;;-2.54;70.88;101913.19;4948229;28;20055;-75
2022/01/01 11:33:39;;;;;;;4.18;1.40;;;;;;;-2.53;70.85;101903.94;4954681;28;20485;-77
2022/01/01 11:36:08;;;;;;;;;;;;;;;-2.53;70.97;101907.38;4950257;29;20153;-77
2022/01/01 11:38:38;;;;;;;4.95;2.05;;;;;;;-2.56;70.80;101906.19;4949157;28;19966;-75
2022/01/01 11:41:07;;;;;;;4.88;2.75;;;;;;;-2.53;70.83;101914.97;4947316;29;20051;-76
2022/01/01 11:43:39;;;;;;;4.78;2.15;;;;;;;-2.55;70.94;101916.44;4953841;28;20441;-75